Time;durP1;ratioP1;P1;durP2;ratioP2;P2;SDS_P1;SDS_P2;PMS_P1;PMS_P2;Temp;Humidity;BMP_temperature;BMP_pressure;BME280_temperature;BME280_humidity;BME280_pressure;Samples;Min_cycle;Max_cycle;Signal;HPM_P1;HPM_P2
2023/11/04 00:02:16;;;;;;;3.87;2.53;;;;;;;9.71;55.95;95317.03;5068382;28;20198;-69
2023/11/04 00:04:43;;;;;;;4.53;2.40;;;;;;;9.67;56.02;95325.31;5068660;28;20242;-70
2023/11/04 00:07:08;;;;;;;6.33;2.63;;;;;;;9.66;56.35;95313.22;5069512;28;20218;-72
2023/11/04 00:09:34;;;;;;;5.30;2.57;;;;;;;9.64;56.11;95315.22;5068793;28;20460;-69
2023/11/04 00:11:59;;;;;;;4.10;2.67;;;;;;;9.64;56.41;95317.84;5068665;28;20201;-69
2023/11/04 00:14:25;;;;;;;2.90;2.60;;;;;;;9.65;55.87;95319.44;5076632;28;20190;-69
2023/11/04 00:16:50;;;;;;;3.70;2.27;;;;;;;9.61;56.38;95315.59;5069170;28;20202;-70
2023/11/04 00:19:16;;;;;;;4.77;2.83;;;;;;;9.53;56.30;95319.16;5069963;28;20194;-72
2023/11/04 00:21:41;;;;;;;4.20;2.60;;;;;;;9.46;56.81;95318.31;5070205;28;20194;-72
2023/11/04 00:24:10;;;;;;;7.67;2.60;;;;;;;9.48;57.02;95310.28;5052825;28;20202;-71
2023/11/04 00:26:37;;;;;;;4.33;2.50;;;;;;;9.58;56.87;95310.75;5071568;28;20190;-71
2023/11/04 00:29:02;;;;;;;3.57;2.43;;;;;;;9.50;56.96;95313.53;5052121;28;20441;-70
2023/11/04 00:31:29;;;;;;;4.90;2.70;;;;;;;9.59;56.88;95309.75;5076306;28;20435;-70
2023/11/04 00:33:55;;;;;;;3.63;2.50;;;;;;;9.64;57.14;95309.19;5069288;28;20202;-69
2023/11/04 00:36:20;;;;;;;3.37;2.37;;;;;;;9.67;56.91;95311.41;5069412;28;20471;-71
2023/11/04 00:38:46;;;;;;;4.87;2.90;;;;;;;9.70;56.69;95305.00;5051236;28;20421;-70
2023/11/04 00:41:11;;;;;;;4.90;2.10;;;;;;;9.72;56.57;95310.81;5026755;28;20191;-70
2023/11/04 00:43:37;;;;;;;4.00;2.30;;;;;;;9.73;56.14;95318.50;5057947;28;21737;-70
2023/11/04 00:46:02;;;;;;;3.30;2.63;;;;;;;9.70;56.21;95307.63;5073332;28;20194;-69
2023/11/04 00:48:28;;;;;;;4.23;2.80;;;;;;;9.55;56.90;95310.31;5072097;28;20261;-70
2023/11/04 00:50:53;;;;;;;5.23;3.00;;;;;;;9.65;56.47;95313.41;5075564;28;20186;-69
2023/11/04 00:53:19;;;;;;;4.17;2.73;;;;;;;9.71;56.51;95319.66;5068940;28;20229;-69
2023/11/04 00:55:44;;;;;;;6.40;2.17;;;;;;;9.70;56.45;95323.31;5080902;28;20190;-71
2023/11/04 00:58:10;;;;;;;3.10;2.10;;;;;;;9.71;56.33;95323.09;5056131;28;20616;-69
2023/11/04 01:00:39;;;;;;;5.00;2.40;;;;;;;9.71;56.52;95324.88;5071183;28;20178;-70
2023/11/04 01:03:04;;;;;;;6.80;2.60;;;;;;;9.76;56.07;95327.75;5069879;28;20214;-71
2023/11/04 01:05:30;;;;;;;6.73;3.10;;;;;;;9.76;55.94;95323.34;5072262;28;20421;-70
2023/11/04 01:07:55;;;;;;;4.93;2.47;;;;;;;9.77;56.03;95324.94;5069880;28;20210;-69
2023/11/04 01:10:21;;;;;;;4.40;2.80;;;;;;;9.78;55.68;95325.75;5053740;28;20189;-70
2023/11/04 01:12:46;;;;;;;4.93;2.00;;;;;;;9.81;55.62;95320.94;5073289;28;20207;-68
2023/11/04 01:15:12;;;;;;;8.10;2.80;;;;;;;9.78;56.07;95325.75;5073389;28;20186;-69
2023/11/04 01:17:38;;;;;;;3.90;2.73;;;;;;;9.68;56.09;95326.91;5069266;28;20301;-71
2023/11/04 01:20:05;;;;;;;3.30;2.20;;;;;;;9.74;55.90;95324.50;5069380;28;21002;-70
2023/11/04 01:22:30;;;;;;;4.80;2.20;;;;;;;9.70;55.99;95325.91;5071385;28;20209;-70
2023/11/04 01:24:56;;;;;;;3.07;2.47;;;;;;;9.66;56.02;95326.28;5075285;28;20925;-71
2023/11/04 01:27:21;;;;;;;2.90;2.10;;;;;;;9.70;56.14;95323.31;5069211;28;20533;-70
2023/11/04 01:29:47;;;;;;;3.83;2.27;;;;;;;9.73;56.04;95330.75;5059299;28;20285;-70
2023/11/04 01:32:12;;;;;;;5.90;2.97;;;;;;;9.72;56.14;95331.75;5063353;28;20210;-69
2023/11/04 01:34:38;;;;;;;5.30;2.50;;;;;;;9.67;56.24;95335.75;5076015;28;20214;-70
2023/11/04 01:37:03;;;;;;;4.17;2.73;;;;;;;9.65;55.95;95329.91;5069398;28;20206;-70
2023/11/04 01:39:29;;;;;;;4.57;2.90;;;;;;;9.66;56.05;95328.09;5077144;28;20780;-69
2023/11/04 01:41:55;;;;;;;7.23;3.23;;;;;;;9.61;56.17;95330.50;5070441;28;20549;-69
2023/11/04 01:44:20;;;;;;;5.00;3.00;;;;;;;9.62;56.18;95324.25;5071986;28;20206;-69
2023/11/04 01:46:46;;;;;;;3.60;2.50;;;;;;;9.58;56.35;95331.66;5027894;28;20499;-70
2023/11/04 01:49:12;;;;;;;7.80;2.60;;;;;;;9.57;56.23;95327.47;5034349;28;20675;-70
2023/11/04 01:51:38;;;;;;;4.03;3.03;;;;;;;9.56;56.40;95320.59;5067923;28;20182;-70
2023/11/04 01:54:04;;;;;;;3.70;2.80;;;;;;;9.52;56.49;95314.94;5069208;28;20294;-70
2023/11/04 01:56:34;;;;;;;3.43;2.90;;;;;;;9.55;56.37;95321.59;5068383;28;20202;-70
2023/11/04 01:58:59;;;;;;;5.33;3.10;;;;;;;9.58;56.06;95321.19;5068675;28;20421;-69
2023/11/04 02:01:26;;;;;;;4.30;2.70;;;;;;;9.58;56.01;95320.41;5075826;28;20771;-69
2023/11/04 02:03:53;;;;;;;3.30;2.50;;;;;;;9.55;56.13;95319.00;5071948;28;20202;-68
2023/11/04 02:06:19;;;;;;;3.10;2.60;;;;;;;9.51;56.36;95309.91;5077319;28;20427;-68
2023/11/04 02:08:44;;;;;;;3.40;2.60;;;;;;;9.49;56.65;95307.50;5068134;28;20554;-68
2023/11/04 02:11:10;;;;;;;3.80;2.60;;;;;;;9.49;56.56;95311.91;5069163;28;20454;-71
2023/11/04 02:13:35;;;;;;;3.70;2.87;;;;;;;9.45;56.31;95310.69;5078317;28;20270;-71
2023/11/04 02:16:01;;;;;;;5.30;2.63;;;;;;;9.40;56.63;95297.38;5051722;28;20628;-70
2023/11/04 02:18:27;;;;;;;6.17;2.70;;;;;;;9.38;56.38;95300.97;5074073;28;20225;-71
2023/11/04 02:20:57;;;;;;;3.70;2.67;;;;;;;9.31;56.69;95294.91;5075005;28;20182;-71
2023/11/04 02:23:22;;;;;;;4.50;2.70;;;;;;;9.35;56.66;95301.34;5066498;28;20464;-68
2023/11/04 02:25:48;;;;;;;3.50;2.60;;;;;;;9.36;55.89;95296.94;5077249;28;20515;-70
2023/11/04 02:28:13;;;;;;;3.30;2.60;;;;;;;9.28;56.29;95291.84;5068259;28;20206;-69
2023/11/04 02:30:39;;;;;;;4.13;2.73;;;;;;;9.25;56.60;95298.28;5071510;28;20273;-71
2023/11/04 02:33:04;;;;;;;2.43;2.13;;;;;;;9.22;56.92;95285.56;5061220;28;20662;-70
2023/11/04 02:35:29;;;;;;;2.93;2.30;;;;;;;9.20;56.95;95287.56;5062214;28;20324;-71
2023/11/04 02:37:55;;;;;;;2.53;2.33;;;;;;;9.17;56.75;95291.38;5050553;28;20202;-70
2023/11/04 02:40:21;;;;;;;2.60;2.20;;;;;;;9.17;56.71;95287.97;5068288;28;20186;-69
2023/11/04 02:42:47;;;;;;;3.53;2.40;;;;;;;9.21;56.69;95297.03;5073053;28;20205;-70
2023/11/04 02:45:12;;;;;;;3.13;2.43;;;;;;;9.23;56.72;95292.44;5072442;28;21146;-69
2023/11/04 02:47:38;;;;;;;3.07;2.10;;;;;;;9.17;56.33;95293.19;5070103;28;20421;-70
2023/11/04 02:50:04;;;;;;;3.43;2.20;;;;;;;9.18;56.73;95294.81;5082195;28;20715;-70
2023/11/04 02:52:29;;;;;;;4.30;2.50;;;;;;;9.11;56.66;95304.41;5067458;28;20244;-69
2023/11/04 02:54:55;;;;;;;2.77;2.13;;;;;;;9.04;56.87;95301.72;5073151;28;20276;-69
2023/11/04 02:57:20;;;;;;;4.70;2.40;;;;;;;8.91;57.29;95294.59;5073230;28;20255;-70
2023/11/04 02:59:46;;;;;;;2.73;2.30;;;;;;;8.90;57.42;95288.56;5072964;28;20178;-70
2023/11/04 03:02:11;;;;;;;2.60;2.40;;;;;;;8.94;57.25;95286.41;5078414;28;20178;-70
2023/11/04 03:04:37;;;;;;;3.33;2.20;;;;;;;8.96;57.52;95288.81;5071444;28;20835;-70
2023/11/04 03:07:03;;;;;;;3.83;2.10;;;;;;;8.89;57.04;95281.72;5081405;28;20178;-71
2023/11/04 03:09:28;;;;;;;5.13;2.07;;;;;;;8.93;57.36;95279.56;5070313;28;20840;-71
2023/11/04 03:11:56;;;;;;;2.13;1.97;;;;;;;8.91;57.10;95273.72;5066445;28;20232;-70
2023/11/04 03:14:21;;;;;;;2.87;2.33;;;;;;;8.88;57.26;95277.50;5049711;28;20221;-71
2023/11/04 03:16:47;;;;;;;3.13;2.37;;;;;;;8.85;56.79;95269.22;5076772;28;20486;-70
2023/11/04 03:19:12;;;;;;;3.93;2.47;;;;;;;8.86;57.23;95278.69;5081494;28;20274;-70
2023/11/04 03:21:38;;;;;;;4.00;2.60;;;;;;;8.79;57.34;95270.00;5081483;28;20178;-70
2023/11/04 03:24:04;;;;;;;3.67;2.50;;;;;;;8.79;57.63;95270.78;5088425;28;20576;-70
2023/11/04 03:26:29;;;;;;;4.60;2.20;;;;;;;8.71;57.53;95266.50;5074936;28;20174;-69
2023/11/04 03:28:54;;;;;;;5.30;3.10;;;;;;;8.67;57.13;95278.34;5065649;28;20655;-70
2023/11/04 03:31:20;;;;;;;4.10;2.67;;;;;;;8.67;57.36;95269.69;5075283;28;20655;-70
2023/11/04 03:33:45;;;;;;;3.47;2.50;;;;;;;8.69;57.19;95271.13;5071226;28;20323;-70
2023/11/04 03:36:11;;;;;;;4.17;2.10;;;;;;;8.69;57.29;95268.50;5057976;28;20208;-70
2023/11/04 03:38:38;;;;;;;4.10;2.30;;;;;;;8.73;57.54;95266.34;5070552;28;20231;-70
2023/11/04 03:41:04;;;;;;;6.53;2.60;;;;;;;8.66;57.52;95271.50;5071284;28;20720;-71
2023/11/04 03:43:29;;;;;;;3.40;2.17;;;;;;;8.63;57.33;95258.81;5070307;28;20474;-72
2023/11/04 03:45:55;;;;;;;6.23;2.37;;;;;;;8.65;56.80;95264.66;5070922;28;20210;-71
2023/11/04 03:48:21;;;;;;;3.30;2.07;;;;;;;8.60;57.06;95261.78;5071521;28;20179;-69
2023/11/04 03:50:46;;;;;;;2.60;1.73;;;;;;;8.66;56.75;95270.66;5081919;28;20593;-70
2023/11/04 03:53:12;;;;;;;4.13;2.43;;;;;;;8.64;56.43;95267.44;5084528;28;20223;-70
2023/11/04 03:55:37;;;;;;;3.20;2.43;;;;;;;8.65;56.83;95267.28;5075788;28;20171;-70
2023/11/04 03:58:02;;;;;;;4.60;2.10;;;;;;;8.71;57.45;95261.28;5075114;28;20710;-71
2023/11/04 04:00:28;;;;;;;4.67;2.20;;;;;;;8.68;57.53;95248.63;5073773;28;20178;-68
2023/11/04 04:02:54;;;;;;;2.80;2.20;;;;;;;8.73;57.50;95258.50;5073020;28;20285;-71
2023/11/04 04:05:19;;;;;;;6.50;2.73;;;;;;;8.74;58.00;95252.28;5075318;28;20463;-69
2023/11/04 04:07:45;;;;;;;3.93;2.73;;;;;;;8.81;57.43;95250.50;5070065;28;20231;-71
2023/11/04 04:10:11;;;;;;;10.43;2.30;;;;;;;8.79;57.47;95246.50;5084885;28;20698;-70
2023/11/04 04:12:37;;;;;;;2.17;1.63;;;;;;;8.79;57.35;95236.03;5071987;28;20194;-70
2023/11/04 04:15:03;;;;;;;3.10;2.13;;;;;;;8.85;57.28;95237.88;5088814;28;20742;-69
2023/11/04 04:17:29;;;;;;;5.33;2.60;;;;;;;8.83;57.70;95242.47;5077438;28;20452;-69
2023/11/04 04:19:54;;;;;;;8.50;2.80;;;;;;;8.78;57.90;95234.41;5081539;28;20507;-70
2023/11/04 04:22:20;;;;;;;5.80;2.53;;;;;;;8.76;57.90;95227.59;5098095;28;20260;-69
2023/11/04 04:24:45;;;;;;;4.90;2.20;;;;;;;8.82;58.30;95222.59;5079895;28;20597;-71
2023/11/04 04:27:11;;;;;;;5.63;2.50;;;;;;;8.85;57.73;95227.44;5090742;28;20166;-72
2023/11/04 04:29:36;;;;;;;3.40;2.27;;;;;;;8.81;57.75;95223.59;5076091;28;20408;-69
2023/11/04 04:32:02;;;;;;;2.33;1.70;;;;;;;8.82;57.45;95222.59;5060633;28;20185;-70
2023/11/04 04:34:27;;;;;;;4.50;2.47;;;;;;;8.82;57.93;95217.38;5073326;28;20683;-70
2023/11/04 04:36:53;;;;;;;3.10;2.10;;;;;;;8.84;57.97;95213.56;5072287;28;20198;-69
2023/11/04 04:39:19;;;;;;;3.90;2.00;;;;;;;8.78;57.63;95218.75;5084163;28;20541;-69
2023/11/04 04:41:45;;;;;;;3.80;2.13;;;;;;;8.74;57.59;95215.72;5071862;28;20439;-70
2023/11/04 04:44:10;;;;;;;2.97;2.00;;;;;;;8.76;58.15;95209.31;5084443;28;20840;-70
2023/11/04 04:46:41;;;;;;;4.70;2.37;;;;;;;8.65;57.58;95211.59;5078911;28;20197;-69
2023/11/04 04:49:07;;;;;;;3.83;1.93;;;;;;;8.69;58.38;95202.41;5071416;28;20170;-71
2023/11/04 04:51:32;;;;;;;2.77;1.80;;;;;;;8.73;58.29;95204.44;5066369;28;20435;-70
2023/11/04 04:53:58;;;;;;;2.97;2.20;;;;;;;8.79;57.68;95202.09;5075589;28;20435;-69
2023/11/04 04:56:24;;;;;;;4.93;2.30;;;;;;;8.79;58.09;95199.47;5061435;28;20183;-70
2023/11/04 04:58:49;;;;;;;2.37;1.80;;;;;;;8.78;58.00;95196.03;5066418;28;20184;-70
2023/11/04 05:01:18;;;;;;;1.90;1.70;;;;;;;8.76;57.97;95196.25;5069249;28;20178;-71
2023/11/04 05:03:44;;;;;;;3.20;1.90;;;;;;;8.69;58.26;95191.97;5070156;28;20195;-69
2023/11/04 05:06:10;;;;;;;5.23;2.33;;;;;;;8.70;57.72;95185.75;5049664;28;20435;-72
2023/11/04 05:08:35;;;;;;;2.53;2.00;;;;;;;8.74;58.21;95179.94;5063936;28;20194;-70
2023/11/04 05:11:00;;;;;;;2.80;1.83;;;;;;;8.71;58.58;95189.97;5071127;28;20181;-69
2023/11/04 05:13:28;;;;;;;2.97;1.70;;;;;;;8.76;58.28;95183.19;5071981;28;20237;-70
2023/11/04 05:15:54;;;;;;;3.33;2.50;;;;;;;8.66;58.00;95180.09;5050250;28;20669;-68
2023/11/04 05:18:20;;;;;;;4.10;2.00;;;;;;;8.68;58.29;95175.50;5069538;28;21002;-71
2023/11/04 05:20:45;;;;;;;2.50;1.87;;;;;;;8.71;58.43;95169.88;5067821;28;20455;-70
2023/11/04 05:23:11;;;;;;;2.53;2.10;;;;;;;8.72;58.61;95168.09;5068865;28;20211;-70
2023/11/04 05:25:37;;;;;;;2.90;1.83;;;;;;;8.79;58.00;95165.53;5067755;28;20655;-71
2023/11/04 05:28:03;;;;;;;4.83;2.27;;;;;;;8.78;57.89;95159.47;5065116;28;20468;-72
2023/11/04 05:30:28;;;;;;;2.30;1.90;;;;;;;8.73;58.44;95157.44;5074132;28;20971;-69
2023/11/04 05:32:56;;;;;;;2.40;1.87;;;;;;;8.67;58.42;95158.22;5070203;28;20288;-70
2023/11/04 05:35:22;;;;;;;1.70;1.40;;;;;;;8.58;58.46;95152.31;5073398;28;20583;-71
2023/11/04 05:37:47;;;;;;;1.87;1.70;;;;;;;8.57;58.43;95153.31;5067009;28;20547;-71
2023/11/04 05:40:12;;;;;;;2.10;1.80;;;;;;;8.60;58.90;95155.56;5068459;28;20456;-70
2023/11/04 05:42:38;;;;;;;2.67;1.60;;;;;;;8.65;58.76;95144.53;5074323;28;20194;-70
2023/11/04 05:45:04;;;;;;;5.57;1.80;;;;;;;8.67;58.28;95144.34;5063463;28;20217;-70
2023/11/04 05:47:30;;;;;;;2.93;1.70;;;;;;;8.66;58.44;95142.72;5064507;28;20182;-71
2023/11/04 05:49:55;;;;;;;1.90;1.60;;;;;;;8.69;58.44;95139.72;5065612;28;20447;-70
2023/11/04 05:52:21;;;;;;;1.90;1.70;;;;;;;8.73;58.36;95128.72;5059030;28;20205;-70
2023/11/04 05:54:47;;;;;;;4.17;2.50;;;;;;;8.75;57.81;95129.34;5071968;28;20370;-70
2023/11/04 05:57:13;;;;;;;3.87;2.13;;;;;;;8.67;57.67;95137.31;5068160;28;20194;-71
2023/11/04 05:59:42;;;;;;;5.53;3.57;;;;;;;8.66;57.16;95135.72;5066470;28;20968;-70
2023/11/04 06:02:08;;;;;;;5.70;5.20;;;;;;;8.56;57.93;95135.25;5067747;28;20474;-70
2023/11/04 06:04:34;;;;;;;2.23;2.03;;;;;;;8.53;57.87;95131.19;5049891;28;20514;-70
2023/11/04 06:07:00;;;;;;;3.53;2.47;;;;;;;8.52;57.95;95131.38;5072560;28;20868;-70
2023/11/04 06:09:26;;;;;;;8.37;2.40;;;;;;;8.48;58.08;95133.56;5065338;28;20522;-70
2023/11/04 06:11:51;;;;;;;2.43;2.10;;;;;;;8.51;57.96;95132.38;5067769;28;20178;-71
2023/11/04 06:14:17;;;;;;;3.60;2.50;;;;;;;8.57;57.91;95131.59;5060791;28;20695;-71
2023/11/04 06:16:43;;;;;;;2.40;2.20;;;;;;;8.48;58.26;95120.53;5065320;28;20675;-69
2023/11/04 06:19:09;;;;;;;3.20;2.23;;;;;;;8.50;58.62;95117.72;5066801;28;20183;-69
2023/11/04 06:21:34;;;;;;;2.50;2.20;;;;;;;8.47;58.45;95113.66;5065243;28;20429;-69
2023/11/04 06:23:59;;;;;;;2.47;2.27;;;;;;;8.43;57.69;95110.63;5066338;28;20340;-69
2023/11/04 06:26:25;;;;;;;2.00;1.80;;;;;;;8.44;57.78;95117.44;5077088;28;20257;-70
2023/11/04 06:28:50;;;;;;;2.27;2.07;;;;;;;8.45;57.50;95108.59;5070311;28;20201;-68
2023/11/04 06:31:17;;;;;;;2.70;2.00;;;;;;;8.41;57.96;95103.97;5067304;28;20300;-68
2023/11/04 06:33:42;;;;;;;2.40;2.20;;;;;;;8.33;58.20;95096.28;5066349;28;20701;-67
2023/11/04 06:36:08;;;;;;;2.40;2.20;;;;;;;8.44;57.70;95096.56;5067277;28;20511;-70
2023/11/04 06:38:34;;;;;;;2.40;2.20;;;;;;;8.37;57.98;95089.69;5066346;28;20760;-69
2023/11/04 06:40:59;;;;;;;2.50;2.20;;;;;;;8.41;58.31;95094.34;5066118;28;20265;-69
2023/11/04 06:43:28;;;;;;;3.90;2.10;;;;;;;8.44;58.54;95080.88;5070776;28;20295;-69
2023/11/04 06:45:53;;;;;;;2.50;2.00;;;;;;;8.47;58.22;95084.94;5063664;28;20317;-70
2023/11/04 06:48:19;;;;;;;2.27;2.07;;;;;;;8.52;58.49;95081.78;5067275;28;20511;-70
2023/11/04 06:50:45;;;;;;;3.03;2.63;;;;;;;8.56;58.29;95073.38;5064779;28;20218;-69
2023/11/04 06:53:10;;;;;;;3.80;2.30;;;;;;;8.35;58.75;95066.38;5065301;28;20670;-69
2023/11/04 06:55:36;;;;;;;2.63;2.40;;;;;;;8.53;58.39;95062.53;5066055;28;20482;-69
2023/11/04 06:58:01;;;;;;;3.53;3.10;;;;;;;8.62;58.84;95055.34;5061267;28;20210;-69
2023/11/04 07:00:27;;;;;;;2.93;2.40;;;;;;;8.73;58.99;95066.03;5070976;28;20297;-70
2023/11/04 07:02:52;;;;;;;2.90;1.90;;;;;;;8.76;58.63;95067.44;5069670;28;20298;-70
2023/11/04 07:05:18;;;;;;;2.93;2.20;;;;;;;8.79;59.12;95064.47;5061516;28;20647;-70
2023/11/04 07:07:43;;;;;;;2.60;2.40;;;;;;;8.81;59.24;95057.25;5063308;28;20603;-69
2023/11/04 07:10:12;;;;;;;3.20;2.03;;;;;;;8.84;58.76;95063.88;5067916;28;20183;-70
2023/11/04 07:12:38;;;;;;;2.57;1.87;;;;;;;8.84;58.92;95048.19;5073646;28;20221;-68
2023/11/04 07:15:04;;;;;;;2.90;2.37;;;;;;;8.76;59.07;95036.94;5070313;28;20430;-70
2023/11/04 07:17:30;;;;;;;3.00;2.50;;;;;;;8.76;58.78;95031.72;5068067;28;20820;-70
2023/11/04 07:20:10;;;;;;;4.03;2.40;;;;;;;8.89;59.13;95033.56;5056678;28;20440;-68
2023/11/04 07:22:36;;;;;;;2.10;1.90;;;;;;;8.91;59.08;95028.16;5069022;28;20436;-70
2023/11/04 07:25:03;;;;;;;4.87;2.03;;;;;;;8.98;59.60;95022.97;5077326;28;21015;-69
2023/11/04 07:27:29;;;;;;;5.23;2.13;;;;;;;9.11;59.56;95027.41;5075986;28;20236;-69
2023/11/04 07:29:54;;;;;;;1.97;1.50;;;;;;;9.22;59.50;95025.03;5069485;28;20436;-69
2023/11/04 07:32:19;;;;;;;1.90;1.70;;;;;;;9.25;59.14;95023.84;5076006;28;20178;-69
2023/11/04 07:34:45;;;;;;;8.63;2.20;;;;;;;9.37;59.19;95016.25;5069969;28;20217;-69
2023/11/04 07:37:10;;;;;;;1.80;1.70;;;;;;;9.50;58.75;95007.59;5072243;28;20612;-70
2023/11/04 07:39:40;;;;;;;2.50;2.00;;;;;;;9.62;58.83;94992.94;5068736;28;20261;-70
2023/11/04 07:42:06;;;;;;;6.23;1.57;;;;;;;9.76;58.39;94993.75;5062188;28;20519;-70
2023/11/04 07:44:31;;;;;;;2.33;1.60;;;;;;;10.11;58.87;94997.94;5049465;28;20448;-71
2023/11/04 07:46:59;;;;;;;3.33;2.10;;;;;;;10.50;58.13;94987.66;5063473;28;20426;-70
2023/11/04 07:49:26;;;;;;;2.30;1.93;;;;;;;11.04;57.36;94994.28;5066407;28;20178;-70
2023/11/04 07:51:54;;;;;;;4.07;2.17;;;;;;;11.52;55.86;94985.13;5061631;28;20425;-70
2023/11/04 07:54:20;;;;;;;2.33;2.03;;;;;;;11.97;54.97;94975.53;5067470;28;20463;-70
2023/11/04 07:56:45;;;;;;;2.70;2.43;;;;;;;12.28;54.51;94972.03;5065654;28;20541;-69
2023/11/04 07:59:10;;;;;;;3.30;1.97;;;;;;;12.60;52.37;94976.34;5066952;28;20194;-70
2023/11/04 08:01:36;;;;;;;1.77;1.67;;;;;;;12.74;51.25;94969.09;5070189;28;20181;-71
2023/11/04 08:04:03;;;;;;;1.50;1.40;;;;;;;12.74;50.25;94963.84;5070609;28;20214;-70
2023/11/04 08:06:29;;;;;;;1.90;1.70;;;;;;;12.63;50.48;94959.34;5070276;28;20433;-70
2023/11/04 08:08:54;;;;;;;2.43;1.13;;;;;;;12.56;50.56;94972.53;5069657;28;20577;-71
2023/11/04 08:11:20;;;;;;;2.27;1.20;;;;;;;12.77;50.53;94973.09;5070449;28;20205;-70
2023/11/04 08:13:45;;;;;;;1.57;1.00;;;;;;;13.01;49.58;94974.81;5070841;28;20206;-70
2023/11/04 08:16:11;;;;;;;2.90;1.17;;;;;;;13.25;49.51;94974.13;5075043;28;20211;-71
2023/11/04 08:18:36;;;;;;;1.43;1.07;;;;;;;13.60;48.55;94960.28;5058080;28;20671;-70
2023/11/04 08:21:02;;;;;;;1.20;1.00;;;;;;;13.80;47.51;94959.97;5069237;28;20490;-71
2023/11/04 08:23:27;;;;;;;1.10;1.00;;;;;;;13.93;46.91;94959.75;5072377;28;20256;-70
2023/11/04 08:25:53;;;;;;;1.90;1.00;;;;;;;13.77;46.50;94953.34;5073044;28;20189;-70
2023/11/04 08:28:18;;;;;;;1.10;0.90;;;;;;;13.46;46.95;94943.91;5051915;28;20187;-70
2023/11/04 08:30:44;;;;;;;1.13;1.00;;;;;;;13.52;47.57;94935.91;5066658;28;20202;-69
2023/11/04 08:33:10;;;;;;;2.60;1.23;;;;;;;13.36;47.72;94933.91;5058042;28;20281;-69
2023/11/04 08:35:35;;;;;;;1.97;1.30;;;;;;;13.21;48.59;94936.97;5053948;28;20298;-70
2023/11/04 08:38:01;;;;;;;1.57;1.20;;;;;;;13.29;48.19;94926.09;5075670;28;20214;-71
2023/11/04 08:40:27;;;;;;;2.73;1.00;;;;;;;13.34;47.70;94920.97;5076379;28;20706;-69
2023/11/04 08:42:53;;;;;;;2.80;1.30;;;;;;;13.17;48.16;94910.28;5069851;28;20206;-70
2023/11/04 08:45:20;;;;;;;2.10;1.20;;;;;;;13.12;48.61;94907.53;5070453;28;20182;-70
2023/11/04 08:47:46;;;;;;;2.70;1.13;;;;;;;12.97;48.33;94910.59;5071146;28;20452;-70
2023/11/04 08:50:11;;;;;;;1.43;1.00;;;;;;;13.12;48.36;94906.72;5070196;28;20464;-70
2023/11/04 08:52:38;;;;;;;2.33;1.37;;;;;;;13.23;48.76;94898.09;5070541;28;20213;-70
2023/11/04 08:55:05;;;;;;;1.33;1.07;;;;;;;13.41;48.57;94896.41;5054009;28;20592;-70
2023/11/04 08:57:32;;;;;;;1.20;1.10;;;;;;;13.75;48.80;94901.94;5053674;28;20425;-70
2023/11/04 08:59:59;;;;;;;2.13;1.30;;;;;;;14.38;48.15;94881.16;5068626;28;20184;-69
2023/11/04 09:02:25;;;;;;;1.80;1.13;;;;;;;14.58;46.11;94881.56;5074579;28;20455;-70
2023/11/04 09:04:51;;;;;;;2.23;1.20;;;;;;;14.39;45.91;94877.50;5069656;28;20565;-72
2023/11/04 09:07:16;;;;;;;2.60;1.03;;;;;;;14.65;45.56;94876.16;5075751;28;20175;-70
2023/11/04 09:09:41;;;;;;;3.40;1.00;;;;;;;14.62;45.37;94870.56;5072028;28;20213;-70
2023/11/04 09:12:07;;;;;;;2.83;1.20;;;;;;;15.03;44.15;94860.78;5073414;28;20240;-73
2023/11/04 09:14:33;;;;;;;1.50;1.07;;;;;;;15.36;43.22;94862.66;5051407;28;20698;-71
2023/11/04 09:16:59;;;;;;;1.10;0.90;;;;;;;15.13;43.55;94866.22;5068920;28;20285;-71
2023/11/04 09:19:24;;;;;;;1.30;1.00;;;;;;;14.88;43.60;94866.59;5069524;28;20501;-72
2023/11/04 09:21:51;;;;;;;1.70;1.07;;;;;;;14.51;43.94;94866.94;5070557;28;20201;-71
2023/11/04 09:24:17;;;;;;;1.97;1.00;;;;;;;14.38;45.54;94867.97;5066972;28;20322;-72
2023/11/04 09:26:44;;;;;;;2.67;1.20;;;;;;;14.65;45.01;94854.25;5018181;28;20774;-71
2023/11/04 09:29:09;;;;;;;8.80;1.13;;;;;;;14.65;44.44;94835.81;5010258;28;20204;-72
2023/11/04 09:31:36;;;;;;;3.37;1.27;;;;;;;14.83;44.25;94834.84;5024515;28;20407;-71
2023/11/04 09:34:08;;;;;;;2.30;1.10;;;;;;;14.69;44.76;94847.53;5052882;28;20594;-72
2023/11/04 09:36:35;;;;;;;2.43;1.20;;;;;;;14.39;45.16;94843.22;5070122;28;21021;-72
2023/11/04 09:42:10;;;;;;;1.70;1.07;;;;;;;14.49;46.00;94830.25;5064740;28;20612;-73
2023/11/04 09:44:35;;;;;;;1.30;1.00;;;;;;;14.68;45.00;94824.84;5070931;28;20510;-72
2023/11/04 09:47:01;;;;;;;1.30;1.10;;;;;;;15.40;45.04;94818.09;5069420;28;20413;-73
2023/11/04 09:49:26;;;;;;;1.47;1.07;;;;;;;15.95;43.28;94818.38;5075787;28;20769;-72
2023/11/04 09:51:54;;;;;;;1.03;0.93;;;;;;;16.36;42.79;94810.94;5068096;28;20194;-73
2023/11/04 09:54:21;;;;;;;3.23;1.37;;;;;;;16.87;41.27;94807.22;5079443;28;20201;-72
2023/11/04 09:56:47;;;;;;;1.30;1.10;;;;;;;16.71;40.70;94809.72;5069807;28;20525;-71
2023/11/04 09:59:12;;;;;;;0.90;0.80;;;;;;;16.91;40.73;94786.38;5066549;28;20421;-72
2023/11/04 10:01:40;;;;;;;1.10;0.80;;;;;;;17.22;40.54;94776.03;5067928;28;20264;-72
2023/11/04 10:04:07;;;;;;;1.27;0.80;;;;;;;16.65;40.37;94771.03;5075607;28;20351;-71
2023/11/04 10:06:32;;;;;;;4.67;1.03;;;;;;;16.89;40.23;94765.44;5071873;28;20439;-72
2023/11/04 10:08:58;;;;;;;1.30;0.87;;;;;;;16.59;40.25;94772.84;5068382;28;21129;-72
2023/11/04 10:11:24;;;;;;;3.43;0.90;;;;;;;16.50;40.40;94766.41;5043791;28;20178;-72
2023/11/04 10:13:50;;;;;;;3.13;1.03;;;;;;;16.26;40.33;94771.97;5049836;28;20460;-72
2023/11/04 10:16:15;;;;;;;3.60;1.10;;;;;;;15.95;40.77;94755.00;5066193;28;20251;-72
2023/11/04 10:18:41;;;;;;;2.50;1.20;;;;;;;15.58;40.93;94756.34;5067271;28;20620;-72
2023/11/04 10:21:06;;;;;;;7.83;1.00;;;;;;;15.45;41.58;94746.94;5068638;28;20211;-72
2023/11/04 10:23:32;;;;;;;1.20;0.80;;;;;;;15.30;41.73;94730.88;5074444;28;20200;-72
2023/11/04 10:26:04;;;;;;;1.80;1.10;;;;;;;15.13;42.28;94733.53;5066609;28;20235;-71
2023/11/04 10:28:30;;;;;;;1.13;0.93;;;;;;;14.77;42.67;94731.16;5058828;28;20166;-70
2023/11/04 10:31:04;;;;;;;1.40;0.90;;;;;;;14.52;43.19;94724.38;5072146;28;20459;-71
2023/11/04 10:33:36;;;;;;;1.83;0.90;;;;;;;14.25;44.03;94711.81;5071698;28;20204;-72
2023/11/04 10:36:06;;;;;;;1.37;0.90;;;;;;;14.12;44.41;94705.00;5067150;28;20454;-71
2023/11/04 10:38:38;;;;;;;1.10;0.80;;;;;;;14.32;44.51;94702.97;5067173;28;20526;-71
2023/11/04 10:41:06;;;;;;;1.40;1.20;;;;;;;14.19;45.15;94691.69;5049145;28;20456;-70
2023/11/04 10:43:56;;;;;;;2.50;1.10;;;;;;;14.08;45.64;94682.00;5050544;28;20443;-73
2023/11/04 10:46:40;;;;;;;1.87;0.90;;;;;;;14.09;45.32;94678.34;5049190;28;20409;-72
2023/11/04 10:49:18;;;;;;;3.40;0.93;;;;;;;13.94;46.11;94674.41;5065901;28;20994;-71
2023/11/04 10:51:51;;;;;;;1.80;0.90;;;;;;;13.81;46.27;94672.81;5046302;28;20409;-70
2023/11/04 10:54:20;;;;;;;1.20;0.80;;;;;;;13.65;46.70;94674.38;5066525;28;20457;-72
2023/11/04 10:56:49;;;;;;;1.10;1.00;;;;;;;13.65;46.67;94671.75;5067146;28;20444;-72
2023/11/04 10:59:21;;;;;;;0.90;0.73;;;;;;;13.52;46.75;94667.56;5064304;28;20546;-73
2023/11/04 11:01:47;;;;;;;1.80;1.10;;;;;;;13.61;46.82;94662.69;5051630;28;20416;-71
2023/11/04 11:04:13;;;;;;;1.00;0.73;;;;;;;13.47;47.23;94658.75;5049416;28;20937;-70
2023/11/04 11:06:39;;;;;;;1.10;1.00;;;;;;;13.67;46.91;94671.53;5040876;28;20209;-73
2023/11/04 11:09:05;;;;;;;1.50;1.20;;;;;;;13.62;46.88;94668.78;5067921;28;20516;-71
2023/11/04 11:12:02;;;;;;;4.93;1.07;;;;;;;13.76;46.72;94658.78;5053800;28;21152;-72
2023/11/04 11:14:28;;;;;;;2.60;1.10;;;;;;;13.79;46.63;94656.50;5040197;28;20497;-70
2023/11/04 11:17:02;;;;;;;1.60;1.50;;;;;;;13.72;47.00;94649.75;5075323;28;20870;-73
2023/11/04 11:19:28;;;;;;;4.60;1.50;;;;;;;13.64;46.96;94641.19;5064930;28;20454;-71
2023/11/04 11:21:53;;;;;;;4.70;1.50;;;;;;;13.78;46.96;94661.97;5055316;28;20205;-72
2023/11/04 11:24:22;;;;;;;5.43;1.43;;;;;;;13.64;46.57;94678.03;5065831;28;20216;-71
2023/11/04 11:26:59;;;;;;;2.27;1.00;;;;;;;13.75;46.24;94657.16;5067834;28;20182;-71
2023/11/04 11:29:25;;;;;;;2.10;1.33;;;;;;;13.69;45.83;94668.66;5065570;28;20428;-70
2023/11/04 11:32:02;;;;;;;6.40;1.77;;;;;;;13.52;45.79;94664.91;5067195;28;20419;-70
2023/11/04 11:34:28;;;;;;;1.70;1.40;;;;;;;13.74;45.37;94650.31;5065978;28;20590;-70
2023/11/04 11:36:53;;;;;;;1.10;0.90;;;;;;;13.84;45.00;94634.72;5053237;28;20909;-72
2023/11/04 11:39:20;;;;;;;2.22;0.85;;;;;;;13.80;44.97;94641.47;5075012;28;20550;-72